createdAt,value
2023-03-11T00:01:26.782Z,70.84
2023-03-11T00:03:55.404Z,71.36
2023-03-11T00:06:25.213Z,71.00
2023-03-11T00:08:53.808Z,71.95
2023-03-11T00:11:23.716Z,71.58
2023-03-11T00:13:54.200Z,70.98
2023-03-11T00:16:23.862Z,71.56
2023-03-11T00:18:53.151Z,71.13
2023-03-11T00:21:21.887Z,71.24
2023-03-11T00:23:51.542Z,71.24
2023-03-11T00:26:21.202Z,71.65
2023-03-11T00:28:49.876Z,71.13
2023-03-11T00:31:22.733Z,71.90
2023-03-11T00:33:51.170Z,71.46
2023-03-11T00:36:31.647Z,72.11
2023-03-11T00:39:00.806Z,71.67
2023-03-11T00:41:31.977Z,71.64
2023-03-11T00:44:04.398Z,71.78
2023-03-11T00:46:36.522Z,71.87
2023-03-11T00:49:05.091Z,71.25
2023-03-11T00:51:35.029Z,72.01
2023-03-11T00:54:03.672Z,71.85
2023-03-11T00:56:32.263Z,72.57
2023-03-11T00:59:00.835Z,71.97
2023-03-11T01:01:29.454Z,72.81
2023-03-11T01:04:02.143Z,71.83
2023-03-11T01:06:44.497Z,72.09
2023-03-11T01:09:14.217Z,72.68
2023-03-11T01:11:43.111Z,72.84
2023-03-11T01:14:11.855Z,72.71
2023-03-11T01:16:40.412Z,72.97
2023-03-11T01:19:10.906Z,73.77
2023-03-11T01:21:39.926Z,73.23
2023-03-11T01:24:09.714Z,72.99
2023-03-11T01:26:38.813Z,74.08
2023-03-11T01:29:07.647Z,73.49
2023-03-11T01:31:37.939Z,73.04
2023-03-11T01:34:06.362Z,73.39
2023-03-11T01:36:36.631Z,73.47
2023-03-11T01:39:07.117Z,73.11
2023-03-11T01:41:38.250Z,73.57
2023-03-11T01:44:09.144Z,73.59
2023-03-11T01:47:17.978Z,74.12
2023-03-11T01:52:21.336Z,74.42
2023-03-11T01:54:52.007Z,73.89
2023-03-11T01:57:22.747Z,74.21
2023-03-11T01:59:57.978Z,74.33
2023-03-11T02:02:33.894Z,74.43
2023-03-11T02:05:05.308Z,74.05
2023-03-11T02:07:37.054Z,74.24
2023-03-11T02:10:08.836Z,74.21
2023-03-11T02:12:39.034Z,74.99
2023-03-11T02:15:11.582Z,74.16
2023-03-11T02:17:44.580Z,74.23
2023-03-11T02:20:34.562Z,74.33
2023-03-11T02:23:06.128Z,74.75
2023-03-11T02:25:43.466Z,74.62
2023-03-11T02:28:17.007Z,74.60
2023-03-11T02:30:48.289Z,74.44
2023-03-11T02:33:17.859Z,74.60
2023-03-11T02:35:46.601Z,75.13
2023-03-11T02:38:15.720Z,74.43
2023-03-11T02:40:55.635Z,74.23
2023-03-11T02:43:37.683Z,74.10
2023-03-11T02:46:10.280Z,74.83
2023-03-11T02:48:42.903Z,73.62
2023-03-11T02:51:11.922Z,74.19
2023-03-11T02:53:48.203Z,73.88
2023-03-11T02:56:16.959Z,73.86
2023-03-11T02:58:47.115Z,73.93
2023-03-11T03:01:16.034Z,73.90
2023-03-11T03:03:45.423Z,73.93
2023-03-11T03:06:14.526Z,73.96
2023-03-11T03:08:43.322Z,74.26
2023-03-11T03:11:12.009Z,73.98
2023-03-11T03:13:40.772Z,74.60
2023-03-11T03:16:11.669Z,73.95
2023-03-11T03:18:40.645Z,73.81
2023-03-11T03:21:09.592Z,74.16
2023-03-11T03:23:38.614Z,74.23
2023-03-11T03:26:08.003Z,74.46
2023-03-11T03:28:38.202Z,73.87
2023-03-11T03:31:09.587Z,74.17
2023-03-11T03:33:38.302Z,74.77
2023-03-11T03:36:09.121Z,73.86
2023-03-11T03:38:38.505Z,74.04
2023-03-11T03:41:08.781Z,74.19
2023-03-11T03:43:37.295Z,73.95
2023-03-11T03:46:07.782Z,73.93
2023-03-11T03:48:38.010Z,73.73
2023-03-11T03:51:10.017Z,74.07
2023-03-11T03:53:41.500Z,74.08
2023-03-11T03:56:13.424Z,74.00
2023-03-11T03:58:42.421Z,73.78
2023-03-11T04:01:20.696Z,73.78
2023-03-11T04:03:50.551Z,74.04
2023-03-11T04:06:21.901Z,73.36
2023-03-11T04:08:53.408Z,73.61
2023-03-11T04:11:23.682Z,73.32
2023-03-11T04:13:52.104Z,73.55
2023-03-11T04:16:26.242Z,73.08
2023-03-11T04:18:56.575Z,72.98
2023-03-11T04:21:27.367Z,72.79
2023-03-11T04:23:56.266Z,73.54
2023-03-11T04:26:25.142Z,73.05
2023-03-11T04:28:54.602Z,73.21
2023-03-11T04:31:23.340Z,73.39
2023-03-11T04:33:52.309Z,72.81
2023-03-11T04:36:22.131Z,72.68
2023-03-11T04:38:50.854Z,72.79
2023-03-11T04:41:19.427Z,72.32
2023-03-11T04:43:48.771Z,72.38
2023-03-11T04:46:17.999Z,72.47
2023-03-11T04:48:47.049Z,72.77
2023-03-11T04:51:17.902Z,72.92
2023-03-11T04:53:47.724Z,73.14
2023-03-11T04:56:16.380Z,73.31
2023-03-11T04:58:45.546Z,73.22
2023-03-11T05:01:13.953Z,72.40
2023-03-11T05:03:42.783Z,72.89
2023-03-11T05:06:11.602Z,72.92
2023-03-11T05:08:40.662Z,73.09
2023-03-11T05:11:11.008Z,73.11
2023-03-11T05:13:43.174Z,72.62
2023-03-11T05:16:11.892Z,72.42
2023-03-11T05:18:40.892Z,72.94
2023-03-11T05:21:09.459Z,72.51
2023-03-11T05:23:37.990Z,73.37
2023-03-11T05:26:07.027Z,73.10
2023-03-11T05:28:37.172Z,72.62
2023-03-11T05:31:11.194Z,73.29
2023-03-11T05:33:39.744Z,72.80
2023-03-11T05:36:12.133Z,72.58
2023-03-11T05:38:41.018Z,72.75
2023-03-11T05:41:09.876Z,72.96
2023-03-11T05:43:40.182Z,72.73
2023-03-11T05:46:09.149Z,73.29
2023-03-11T05:48:38.133Z,73.15
2023-03-11T05:51:10.462Z,73.05
2023-03-11T05:53:40.062Z,73.26
2023-03-11T05:56:09.428Z,73.72
2023-03-11T05:58:39.945Z,73.39
2023-03-11T06:01:13.685Z,73.21
2023-03-11T06:03:44.401Z,73.74
2023-03-11T06:06:19.984Z,74.08
2023-03-11T06:08:50.445Z,73.57
2023-03-11T06:11:19.773Z,73.60
2023-03-11T06:13:54.615Z,74.12
2023-03-11T06:16:23.613Z,73.60
2023-03-11T06:18:55.237Z,73.75
2023-03-11T06:21:27.114Z,73.93
2023-03-11T06:23:57.118Z,74.28
2023-03-11T06:26:26.135Z,74.08
2023-03-11T06:28:56.259Z,74.57
2023-03-11T06:31:27.559Z,74.48
2023-03-11T06:33:57.237Z,74.77
2023-03-11T06:36:27.125Z,75.00
2023-03-11T06:38:56.340Z,75.17
2023-03-11T06:41:25.074Z,75.39
2023-03-11T06:43:53.450Z,74.50
2023-03-11T06:46:25.607Z,74.78
2023-03-11T06:48:56.694Z,74.35
2023-03-11T06:51:28.165Z,75.16
2023-03-11T06:53:57.233Z,74.73
2023-03-11T06:56:26.455Z,74.94
2023-03-11T06:58:55.935Z,74.39
2023-03-11T07:01:28.814Z,74.68
2023-03-11T07:03:57.930Z,74.58
2023-03-11T07:06:28.820Z,74.93
2023-03-11T07:08:58.899Z,74.92
2023-03-11T07:11:29.045Z,75.09
2023-03-11T07:14:05.486Z,73.97
2023-03-11T07:16:35.760Z,74.71
2023-03-11T07:19:04.618Z,74.54
2023-03-11T07:21:34.314Z,74.30
2023-03-11T07:24:04.108Z,74.57
2023-03-11T07:26:34.850Z,73.99
2023-03-11T07:29:04.607Z,73.75
2023-03-11T07:31:37.457Z,74.70
2023-03-11T07:34:11.628Z,74.25
2023-03-11T07:36:45.276Z,75.20
2023-03-11T07:39:18.749Z,74.44
2023-03-11T07:41:48.571Z,74.17
2023-03-11T07:44:20.444Z,74.46
2023-03-11T07:46:51.825Z,74.08
2023-03-11T07:49:20.517Z,74.73
2023-03-11T07:51:48.952Z,74.68
2023-03-11T07:54:21.852Z,75.11
2023-03-11T07:56:50.491Z,74.61
2023-03-11T07:59:19.604Z,74.21
2023-03-11T08:01:52.756Z,74.81
2023-03-11T08:04:21.205Z,74.81
2023-03-11T08:06:51.086Z,74.84
2023-03-11T08:09:19.706Z,75.51
2023-03-11T08:11:49.662Z,74.15
2023-03-11T08:14:18.692Z,74.96
2023-03-11T08:16:47.227Z,74.97
2023-03-11T08:19:18.005Z,74.63
2023-03-11T08:21:49.008Z,74.71
2023-03-11T08:24:19.079Z,74.59
2023-03-11T08:26:48.017Z,75.09
2023-03-11T08:29:16.637Z,74.26
2023-03-11T08:31:45.268Z,74.27
2023-03-11T08:34:14.769Z,74.22
2023-03-11T08:36:45.360Z,75.13
2023-03-11T08:39:14.019Z,75.92
2023-03-11T08:41:42.648Z,75.61
2023-03-11T08:44:11.217Z,75.55
2023-03-11T08:46:43.139Z,75.66
2023-03-11T08:49:12.011Z,74.95
2023-03-11T08:51:43.386Z,74.92
2023-03-11T08:54:11.893Z,75.65
2023-03-11T08:56:40.330Z,75.86
2023-03-11T08:59:09.232Z,75.21
2023-03-11T09:01:38.993Z,76.23
2023-03-11T09:04:07.775Z,75.65
2023-03-11T09:06:36.933Z,76.00
2023-03-11T09:09:07.292Z,76.02
2023-03-11T09:11:37.676Z,75.71
2023-03-11T09:14:06.729Z,75.95
2023-03-11T09:16:36.198Z,76.35
2023-03-11T09:19:07.454Z,76.50
2023-03-11T09:21:36.687Z,76.35
2023-03-11T09:24:07.957Z,76.60
2023-03-11T09:26:38.912Z,77.09
2023-03-11T09:29:07.365Z,76.78
2023-03-11T09:31:35.974Z,77.55
2023-03-11T09:34:04.526Z,78.09
2023-03-11T09:36:34.426Z,77.75
2023-03-11T09:39:03.095Z,78.05
2023-03-11T09:41:57.214Z,78.19
2023-03-11T09:44:38.270Z,77.30
2023-03-11T09:47:38.591Z,76.68
2023-03-11T09:50:31.576Z,76.54
2023-03-11T09:53:22.233Z,76.47
2023-03-11T09:55:53.688Z,75.81
2023-03-11T09:58:37.665Z,75.57
2023-03-11T10:01:18.294Z,75.33
2023-03-11T10:03:54.866Z,75.28
2023-03-11T10:06:26.790Z,74.87
2023-03-11T10:09:04.537Z,74.57
2023-03-11T10:12:01.127Z,74.11
2023-03-11T10:15:12.078Z,73.66
2023-03-11T10:18:01.056Z,73.40
2023-03-11T10:20:39.950Z,73.72
2023-03-11T10:23:20.674Z,74.28
2023-03-11T10:26:04.378Z,74.70
2023-03-11T10:28:38.085Z,74.69
2023-03-11T10:31:23.609Z,74.87
2023-03-11T10:33:58.085Z,75.04
2023-03-11T10:36:39.372Z,75.05
2023-03-11T10:39:12.458Z,74.94
2023-03-11T10:41:50.653Z,75.10
2023-03-11T10:44:25.368Z,75.94
2023-03-11T10:46:55.402Z,75.82
2023-03-11T10:49:24.108Z,75.39
2023-03-11T10:51:55.026Z,75.49
2023-03-11T10:54:30.114Z,75.56
2023-03-11T10:57:01.615Z,75.74
2023-03-11T10:59:33.830Z,76.10
2023-03-11T11:02:26.869Z,75.14
2023-03-11T11:05:28.790Z,74.55
2023-03-11T11:08:07.581Z,74.33
2023-03-11T11:10:37.985Z,73.76
2023-03-11T11:13:21.117Z,73.74
2023-03-11T11:16:00.398Z,73.41
2023-03-11T11:18:34.732Z,73.38
2023-03-11T11:21:06.876Z,73.74
2023-03-11T11:23:42.877Z,73.10
2023-03-11T11:26:20.434Z,72.89
2023-03-11T11:29:08.449Z,73.71
2023-03-11T11:31:39.066Z,73.49
2023-03-11T11:34:30.537Z,73.21
2023-03-11T11:37:02.103Z,72.52
2023-03-11T11:39:51.941Z,71.86
2023-03-11T11:42:22.147Z,72.18
2023-03-11T11:44:56.724Z,71.83
2023-03-11T11:47:31.421Z,71.75
2023-03-11T11:50:05.603Z,71.70
2023-03-11T11:52:43.105Z,71.57
2023-03-11T11:55:22.455Z,71.29
2023-03-11T11:57:52.837Z,71.70
2023-03-11T12:00:25.926Z,72.05
2023-03-11T12:03:13.851Z,72.51
2023-03-11T12:05:53.466Z,71.96
2023-03-11T12:08:28.065Z,72.20
2023-03-11T12:11:02.464Z,72.34
2023-03-11T12:14:00.643Z,72.75
2023-03-11T12:16:42.433Z,73.58
2023-03-11T12:19:33.050Z,73.04
2023-03-11T12:22:48.042Z,72.96
2023-03-11T12:25:35.954Z,72.45
2023-03-11T12:28:19.135Z,72.92
2023-03-11T12:30:52.819Z,72.93
2023-03-11T12:33:32.636Z,73.02
2023-03-11T12:36:03.346Z,72.83
2023-03-11T12:38:36.331Z,72.95
2023-03-11T12:41:08.172Z,73.69
2023-03-11T12:44:05.152Z,72.84
2023-03-11T12:47:30.875Z,72.88
2023-03-11T12:50:47.267Z,72.74
2023-03-11T12:53:19.028Z,73.33
2023-03-11T12:56:06.766Z,72.54
2023-03-11T12:59:22.599Z,73.19
2023-03-11T13:02:04.319Z,73.17
2023-03-11T13:04:49.278Z,73.37
2023-03-11T13:07:49.388Z,73.38
2023-03-11T13:10:40.880Z,73.51
2023-03-11T13:13:41.797Z,73.64
2023-03-11T13:16:39.084Z,73.79
2023-03-11T13:19:51.980Z,74.62
2023-03-11T13:23:06.499Z,73.93
2023-03-11T13:25:41.302Z,74.47
2023-03-11T13:28:39.176Z,74.83
2023-03-11T13:31:25.605Z,75.14
2023-03-11T13:33:55.931Z,75.92
2023-03-11T13:36:45.136Z,75.73
2023-03-11T13:40:02.321Z,75.96
2023-03-11T13:42:38.799Z,75.92
2023-03-11T13:45:19.311Z,76.27
2023-03-11T13:47:51.009Z,75.95
2023-03-11T13:50:27.430Z,76.71
2023-03-11T13:52:56.177Z,76.59
2023-03-11T13:55:40.365Z,75.65
2023-03-11T13:58:18.347Z,75.48
2023-03-11T14:00:53.118Z,75.50
2023-03-11T14:03:25.559Z,75.48
2023-03-11T14:06:00.330Z,75.65
2023-03-11T14:08:31.740Z,75.60
2023-03-11T14:11:01.969Z,75.41
2023-03-11T14:13:32.756Z,74.79
2023-03-11T14:16:07.102Z,75.25
2023-03-11T14:18:41.712Z,75.64
2023-03-11T14:21:16.905Z,74.92
2023-03-11T14:23:48.630Z,73.98
2023-03-11T14:26:20.671Z,73.98
2023-03-11T14:28:52.986Z,73.76
2023-03-11T14:31:31.849Z,72.98
2023-03-11T14:34:06.845Z,72.95
2023-03-11T14:36:43.590Z,72.66
2023-03-11T14:39:32.946Z,72.20
2023-03-11T14:42:13.880Z,72.34
2023-03-11T14:44:44.843Z,71.51
2023-03-11T14:47:20.838Z,71.54
2023-03-11T14:49:52.175Z,71.67
2023-03-11T14:52:26.603Z,70.83
2023-03-11T14:54:56.003Z,70.68
2023-03-11T14:57:35.435Z,69.57
2023-03-11T15:00:09.004Z,69.56
2023-03-11T15:02:52.993Z,69.41
2023-03-11T15:05:29.763Z,68.99
2023-03-11T15:08:03.736Z,68.68
2023-03-11T15:10:35.654Z,67.74
2023-03-11T15:13:17.226Z,67.86
2023-03-11T15:15:47.230Z,67.79
2023-03-11T15:18:25.625Z,67.60
2023-03-11T15:21:08.904Z,67.17
2023-03-11T15:23:38.467Z,66.73
2023-03-11T15:26:07.570Z,65.92
2023-03-11T15:28:39.330Z,66.37
2023-03-11T15:31:31.162Z,65.97
2023-03-11T15:34:32.517Z,65.11
2023-03-11T15:37:21.823Z,65.40
2023-03-11T15:39:52.682Z,64.92
2023-03-11T15:42:24.983Z,65.47
2023-03-11T15:45:18.943Z,64.80
2023-03-11T15:47:49.473Z,63.44
2023-03-11T15:50:30.143Z,63.38
2023-03-11T15:53:05.035Z,63.37
2023-03-11T15:55:33.736Z,63.33
2023-03-11T15:58:07.912Z,63.18
2023-03-11T16:00:37.432Z,62.97
2023-03-11T16:03:06.441Z,63.06
2023-03-11T16:05:34.925Z,63.45
2023-03-11T16:08:04.771Z,63.70
2023-03-11T16:10:33.322Z,63.48
2023-03-11T16:13:01.819Z,62.96
2023-03-11T16:15:33.552Z,63.33
2023-03-11T16:18:04.457Z,63.23
2023-03-11T16:20:38.691Z,63.62
2023-03-11T16:23:16.099Z,62.97
2023-03-11T16:25:45.849Z,62.84
2023-03-11T16:28:17.880Z,62.93
2023-03-11T16:30:46.807Z,62.34
2023-03-11T16:36:16.441Z,62.61
2023-03-11T16:38:57.131Z,63.09
2023-03-11T16:41:25.673Z,62.91
2023-03-11T16:43:54.919Z,63.11
2023-03-11T16:46:23.286Z,62.74
2023-03-11T16:48:53.649Z,63.37
2023-03-11T16:51:23.036Z,62.83
2023-03-11T16:53:52.925Z,62.68
2023-03-11T16:56:22.838Z,63.45
2023-03-11T16:58:51.534Z,63.37
2023-03-11T17:01:22.756Z,63.71
2023-03-11T17:03:52.267Z,64.24
2023-03-11T17:06:22.338Z,65.14
2023-03-11T17:08:54.093Z,64.72
2023-03-11T17:11:28.474Z,65.69
2023-03-11T17:14:13.651Z,65.45
2023-03-11T17:16:44.583Z,65.62
2023-03-11T17:19:13.403Z,65.54
2023-03-11T17:21:41.872Z,66.27
2023-03-11T17:24:12.079Z,65.91
2023-03-11T17:26:40.528Z,65.87
2023-03-11T17:29:08.950Z,66.14
2023-03-11T17:31:37.474Z,66.01
2023-03-11T17:34:05.939Z,65.86
2023-03-11T17:36:34.350Z,65.76
2023-03-11T17:39:02.763Z,66.51
2023-03-11T17:41:32.685Z,66.52
2023-03-11T17:44:01.107Z,66.11
2023-03-11T17:46:29.693Z,66.17
2023-03-11T17:48:59.956Z,66.50
2023-03-11T17:51:28.420Z,66.32
2023-03-11T17:53:57.598Z,66.17
2023-03-11T17:56:26.658Z,66.33
2023-03-11T17:58:56.452Z,66.88
2023-03-11T18:01:27.286Z,66.32
2023-03-11T18:03:56.675Z,66.69
2023-03-11T18:06:25.997Z,66.24
2023-03-11T18:08:54.480Z,66.23
2023-03-11T18:11:27.877Z,66.51
2023-03-11T18:13:59.168Z,66.48
2023-03-11T18:16:31.997Z,66.28
2023-03-11T18:19:00.806Z,66.13
2023-03-11T18:21:31.315Z,65.72
2023-03-11T18:24:01.783Z,65.44
2023-03-11T18:26:31.901Z,65.75
2023-03-11T18:29:02.665Z,65.12
2023-03-11T18:31:33.184Z,65.19
2023-03-11T18:34:05.117Z,64.47
2023-03-11T18:36:35.493Z,64.21
2023-03-11T18:39:04.862Z,64.58
2023-03-11T18:41:36.540Z,64.50
2023-03-11T18:44:07.211Z,64.19
2023-03-11T18:46:35.998Z,64.24
2023-03-11T18:49:05.795Z,64.59
2023-03-11T18:51:34.869Z,64.29
2023-03-11T18:54:04.070Z,64.63
2023-03-11T18:56:32.754Z,63.89
2023-03-11T18:59:01.570Z,63.87
2023-03-11T19:01:31.945Z,63.37
2023-03-11T19:04:01.723Z,63.92
2023-03-11T19:06:30.829Z,64.21
2023-03-11T19:08:59.492Z,64.16
2023-03-11T19:11:28.439Z,63.98
2023-03-11T19:13:57.434Z,64.15
2023-03-11T19:16:27.839Z,64.35
2023-03-11T19:18:58.253Z,64.12
2023-03-11T19:21:27.016Z,64.21
2023-03-11T19:23:56.649Z,64.33
2023-03-11T19:26:43.249Z,64.56
2023-03-11T19:29:13.571Z,64.24
2023-03-11T19:31:43.593Z,64.04
2023-03-11T19:34:13.709Z,64.51
2023-03-11T19:36:42.337Z,64.16
2023-03-11T19:39:10.881Z,64.37
2023-03-11T19:41:39.358Z,64.38
2023-03-11T19:44:07.755Z,64.48
2023-03-11T19:46:36.548Z,64.47
2023-03-11T19:49:05.905Z,64.44
2023-03-11T19:51:49.263Z,64.55
2023-03-11T19:54:19.456Z,64.69
2023-03-11T19:56:48.266Z,64.68
2023-03-11T19:59:17.397Z,64.40
2023-03-11T20:01:46.014Z,64.61
2023-03-11T20:04:15.396Z,64.38
2023-03-11T20:06:46.630Z,64.93
2023-03-11T20:09:16.250Z,64.99
2023-03-11T20:11:45.689Z,65.36
2023-03-11T20:14:14.754Z,65.29
2023-03-11T20:16:43.307Z,65.11
2023-03-11T20:19:11.915Z,65.30
2023-03-11T20:21:40.997Z,65.54
2023-03-11T20:24:11.803Z,65.62
2023-03-11T20:26:40.377Z,65.17
2023-03-11T20:29:09.134Z,65.58
2023-03-11T20:31:38.366Z,65.96
2023-03-11T20:34:10.050Z,65.67
2023-03-11T20:36:38.945Z,65.86
2023-03-11T20:39:10.506Z,65.70
2023-03-11T20:41:42.294Z,65.79
2023-03-11T20:44:14.650Z,65.97
2023-03-11T20:46:43.604Z,66.08
2023-03-11T20:49:12.221Z,65.99
2023-03-11T20:51:41.960Z,66.05
2023-03-11T20:54:12.126Z,66.32
2023-03-11T20:56:42.554Z,66.23
2023-03-11T20:59:14.459Z,66.29
2023-03-11T21:01:43.241Z,66.45
2023-03-11T21:04:13.950Z,66.20
2023-03-11T21:06:44.062Z,66.06
2023-03-11T21:09:14.938Z,66.72
2023-03-11T21:11:44.984Z,66.39
2023-03-11T21:14:17.796Z,66.11
2023-03-11T21:16:46.888Z,66.30
2023-03-11T21:19:15.976Z,66.36
2023-03-11T21:21:44.548Z,66.41
2023-03-11T21:24:13.188Z,66.51
2023-03-11T21:26:41.812Z,66.64
2023-03-11T21:29:11.799Z,66.68
2023-03-11T21:31:40.566Z,66.84
2023-03-11T21:34:11.161Z,66.87
2023-03-11T21:36:39.846Z,67.18
2023-03-11T21:39:08.685Z,67.03
2023-03-11T21:41:38.294Z,67.30
2023-03-11T21:44:06.738Z,67.39
2023-03-11T21:46:36.804Z,67.37
2023-03-11T21:49:05.225Z,67.96
2023-03-11T21:51:33.831Z,68.08
2023-03-11T21:54:03.735Z,68.15
2023-03-11T21:56:32.243Z,67.93
2023-03-11T21:59:01.169Z,68.46
2023-03-11T22:01:29.768Z,68.36
2023-03-11T22:03:59.736Z,68.36
2023-03-11T22:06:30.963Z,68.30
2023-03-11T22:08:59.722Z,68.50
2023-03-11T22:11:28.695Z,68.65
2023-03-11T22:14:00.551Z,68.51
2023-03-11T22:16:29.303Z,68.28
2023-03-11T22:18:59.287Z,68.36
2023-03-11T22:21:27.933Z,68.43
2023-03-11T22:23:56.439Z,68.35
2023-03-11T22:26:24.985Z,68.21
2023-03-11T22:28:53.652Z,68.30
2023-03-11T22:31:22.089Z,68.85
2023-03-11T22:33:50.811Z,68.48
2023-03-11T22:36:20.749Z,68.67
2023-03-11T22:38:49.839Z,69.13
2023-03-11T22:41:20.357Z,68.71
2023-03-11T22:43:49.161Z,68.92
2023-03-11T22:46:17.722Z,68.82
2023-03-11T22:48:46.247Z,68.80
2023-03-11T22:51:14.975Z,69.00
2023-03-11T22:53:45.150Z,69.04
2023-03-11T22:56:16.958Z,69.08
2023-03-11T22:58:46.070Z,69.19
2023-03-11T23:01:16.530Z,69.21
2023-03-11T23:03:45.491Z,69.61
2023-03-11T23:06:16.739Z,69.28
2023-03-11T23:08:47.346Z,69.07
2023-03-11T23:11:18.631Z,69.01
2023-03-11T23:13:47.340Z,69.20
2023-03-11T23:16:18.427Z,69.28
2023-03-11T23:18:49.287Z,69.28
2023-03-11T23:21:20.084Z,69.17
2023-03-11T23:23:50.388Z,69.30
2023-03-11T23:26:19.599Z,69.73
2023-03-11T23:28:50.626Z,69.52
2023-03-11T23:31:20.961Z,69.90
2023-03-11T23:33:49.566Z,69.29
2023-03-11T23:36:21.341Z,69.69
2023-03-11T23:38:51.937Z,69.75
2023-03-11T23:41:23.769Z,69.69
2023-03-11T23:43:52.793Z,69.71
2023-03-11T23:46:21.447Z,69.97
2023-03-11T23:48:50.119Z,70.29
2023-03-11T23:51:18.566Z,69.92
2023-03-11T23:53:47.171Z,70.39
2023-03-11T23:56:19.307Z,70.31
2023-03-11T23:58:48.684Z,70.80
